sensor_id;sensor_type;location;lat;lon;timestamp;pressure;altitude;pressure_sealevel;temperature;humidity
75247;BME280;63844;50.042;19.224;2023-03-14T00:02:14;97521.86;;;9.61;55.74
75247;BME280;63844;50.042;19.224;2023-03-14T00:04:40;97518.61;;;9.59;55.80
75247;BME280;63844;50.042;19.224;2023-03-14T00:07:07;97516.67;;;9.57;55.81
75247;BME280;63844;50.042;19.224;2023-03-14T00:09:36;97511.80;;;9.50;56.26
75247;BME280;63844;50.042;19.224;2023-03-14T00:12:03;97514.41;;;9.40;56.64
75247;BME280;63844;50.042;19.224;2023-03-14T00:14:31;97513.48;;;9.31;56.96
75247;BME280;63844;50.042;19.224;2023-03-14T00:16:58;97511.80;;;9.17;57.62
75247;BME280;63844;50.042;19.224;2023-03-14T00:19:24;97507.47;;;9.03;57.83
75247;BME280;63844;50.042;19.224;2023-03-14T00:21:51;97496.70;;;8.97;57.82
75247;BME280;63844;50.042;19.224;2023-03-14T00:24:17;97489.57;;;8.89;58.42
75247;BME280;63844;50.042;19.224;2023-03-14T00:26:43;97480.19;;;8.79;59.15
75247;BME280;63844;50.042;19.224;2023-03-14T00:29:10;97475.92;;;8.67;59.26
75247;BME280;63844;50.042;19.224;2023-03-14T00:31:36;97465.02;;;8.54;59.56
75247;BME280;63844;50.042;19.224;2023-03-14T00:34:03;97455.98;;;8.44;59.66
75247;BME280;63844;50.042;19.224;2023-03-14T00:36:29;97437.59;;;8.42;59.54
75247;BME280;63844;50.042;19.224;2023-03-14T00:38:56;97415.58;;;8.44;59.13
75247;BME280;63844;50.042;19.224;2023-03-14T00:41:23;97411.02;;;8.54;59.07
75247;BME280;63844;50.042;19.224;2023-03-14T00:43:50;97405.39;;;8.66;58.77
75247;BME280;63844;50.042;19.224;2023-03-14T00:46:17;97399.78;;;8.83;58.07
75247;BME280;63844;50.042;19.224;2023-03-14T00:48:44;97395.14;;;8.96;57.98
75247;BME280;63844;50.042;19.224;2023-03-14T00:51:12;97382.93;;;9.03;57.82
75247;BME280;63844;50.042;19.224;2023-03-14T00:53:41;97386.26;;;9.13;57.09
75247;BME280;63844;50.042;19.224;2023-03-14T00:56:11;97392.51;;;9.20;57.50
75247;BME280;63844;50.042;19.224;2023-03-14T00:58:38;97387.06;;;9.33;57.16
75247;BME280;63844;50.042;19.224;2023-03-14T01:01:16;97379.32;;;9.46;56.83
75247;BME280;63844;50.042;19.224;2023-03-14T01:03:43;97366.64;;;9.60;56.52
75247;BME280;63844;50.042;19.224;2023-03-14T01:06:14;97357.23;;;9.70;56.30
75247;BME280;63844;50.042;19.224;2023-03-14T01:08:41;97349.52;;;9.90;55.89
75247;BME280;63844;50.042;19.224;2023-03-14T01:11:10;97351.79;;;10.10;55.41
75247;BME280;63844;50.042;19.224;2023-03-14T01:13:37;97362.90;;;10.26;55.09
75247;BME280;63844;50.042;19.224;2023-03-14T01:16:04;97366.66;;;10.35;54.94
75247;BME280;63844;50.042;19.224;2023-03-14T01:18:33;97363.22;;;10.46;54.60
75247;BME280;63844;50.042;19.224;2023-03-14T01:21:03;97359.92;;;10.45;54.54
75247;BME280;63844;50.042;19.224;2023-03-14T01:23:30;97362.55;;;10.45;54.68
75247;BME280;63844;50.042;19.224;2023-03-14T01:25:56;97351.50;;;10.44;54.68
75247;BME280;63844;50.042;19.224;2023-03-14T01:28:24;97347.19;;;10.41;55.07
75247;BME280;63844;50.042;19.224;2023-03-14T01:30:50;97342.02;;;10.38;55.08
75247;BME280;63844;50.042;19.224;2023-03-14T01:33:17;97344.06;;;10.35;55.40
75247;BME280;63844;50.042;19.224;2023-03-14T01:35:43;97336.09;;;10.31;55.32
75247;BME280;63844;50.042;19.224;2023-03-14T01:38:10;97335.83;;;10.34;55.39
75247;BME280;63844;50.042;19.224;2023-03-14T01:40:44;97325.64;;;10.33;55.56
75247;BME280;63844;50.042;19.224;2023-03-14T01:43:15;97318.89;;;10.33;55.37
75247;BME280;63844;50.042;19.224;2023-03-14T01:48:26;97291.66;;;10.33;55.19
75247;BME280;63844;50.042;19.224;2023-03-14T01:50:54;97275.45;;;10.39;55.02
75247;BME280;63844;50.042;19.224;2023-03-14T01:53:21;97261.89;;;10.38;55.09
75247;BME280;63844;50.042;19.224;2023-03-14T01:55:49;97248.61;;;10.44;54.47
75247;BME280;63844;50.042;19.224;2023-03-14T01:58:16;97238.01;;;10.55;54.39
75247;BME280;63844;50.042;19.224;2023-03-14T02:00:43;97227.25;;;10.62;53.99
75247;BME280;63844;50.042;19.224;2023-03-14T02:03:14;97224.73;;;10.66;53.88
75247;BME280;63844;50.042;19.224;2023-03-14T02:05:43;97221.93;;;10.72;53.71
75247;BME280;63844;50.042;19.224;2023-03-14T02:08:13;97217.23;;;10.82;53.04
75247;BME280;63844;50.042;19.224;2023-03-14T02:10:45;97226.31;;;10.91;52.86
75247;BME280;63844;50.042;19.224;2023-03-14T02:13:12;97233.24;;;10.97;52.60
75247;BME280;63844;50.042;19.224;2023-03-14T02:15:40;97239.14;;;10.97;52.90
75247;BME280;63844;50.042;19.224;2023-03-14T02:18:07;97241.95;;;11.01;52.84
75247;BME280;63844;50.042;19.224;2023-03-14T02:23:10;97234.89;;;10.99;52.60
75247;BME280;63844;50.042;19.224;2023-03-14T02:25:43;97229.08;;;11.05;52.57
75247;BME280;63844;50.042;19.224;2023-03-14T02:28:12;97224.45;;;11.05;52.34
75247;BME280;63844;50.042;19.224;2023-03-14T02:30:38;97219.26;;;11.05;52.61
75247;BME280;63844;50.042;19.224;2023-03-14T02:33:11;97213.70;;;11.00;52.63
75247;BME280;63844;50.042;19.224;2023-03-14T02:35:46;97213.09;;;11.03;52.57
75247;BME280;63844;50.042;19.224;2023-03-14T02:40:59;97210.58;;;10.98;52.56
75247;BME280;63844;50.042;19.224;2023-03-14T02:43:25;97207.92;;;10.96;52.58
75247;BME280;63844;50.042;19.224;2023-03-14T02:45:52;97205.87;;;10.93;52.51
75247;BME280;63844;50.042;19.224;2023-03-14T02:48:28;97205.70;;;10.93;52.57
75247;BME280;63844;50.042;19.224;2023-03-14T02:50:57;97211.59;;;10.94;52.37
75247;BME280;63844;50.042;19.224;2023-03-14T02:53:34;97212.12;;;10.98;52.70
75247;BME280;63844;50.042;19.224;2023-03-14T02:56:00;97216.75;;;10.98;52.41
75247;BME280;63844;50.042;19.224;2023-03-14T02:58:28;97209.80;;;11.00;52.21
75247;BME280;63844;50.042;19.224;2023-03-14T03:00:55;97210.79;;;11.01;52.75
75247;BME280;63844;50.042;19.224;2023-03-14T03:03:21;97221.40;;;10.94;52.86
75247;BME280;63844;50.042;19.224;2023-03-14T03:05:53;97223.28;;;10.84;52.87
75247;BME280;63844;50.042;19.224;2023-03-14T03:08:21;97226.74;;;10.77;53.45
75247;BME280;63844;50.042;19.224;2023-03-14T03:10:48;97236.91;;;10.63;53.67
75247;BME280;63844;50.042;19.224;2023-03-14T03:13:15;97242.54;;;10.48;54.32
75247;BME280;63844;50.042;19.224;2023-03-14T03:15:42;97253.44;;;10.16;55.53
75247;BME280;63844;50.042;19.224;2023-03-14T03:18:08;97267.50;;;9.96;55.54
75247;BME280;63844;50.042;19.224;2023-03-14T03:20:35;97273.02;;;9.84;55.99
75247;BME280;63844;50.042;19.224;2023-03-14T03:23:02;97274.36;;;9.69;56.14
75247;BME280;63844;50.042;19.224;2023-03-14T03:25:29;97273.55;;;9.54;56.49
75247;BME280;63844;50.042;19.224;2023-03-14T03:27:56;97276.31;;;9.37;57.22
75247;BME280;63844;50.042;19.224;2023-03-14T03:30:22;97277.75;;;9.21;57.98
75247;BME280;63844;50.042;19.224;2023-03-14T03:32:49;97272.77;;;9.07;58.07
75247;BME280;63844;50.042;19.224;2023-03-14T03:35:15;97268.45;;;8.86;59.51
75247;BME280;63844;50.042;19.224;2023-03-14T03:37:42;97273.58;;;8.69;60.17
75247;BME280;63844;50.042;19.224;2023-03-14T03:40:09;97272.52;;;8.59;59.81
75247;BME280;63844;50.042;19.224;2023-03-14T03:42:36;97265.34;;;8.52;59.96
75247;BME280;63844;50.042;19.224;2023-03-14T03:45:03;97257.86;;;8.45;60.01
75247;BME280;63844;50.042;19.224;2023-03-14T03:47:31;97262.41;;;8.48;59.54
75247;BME280;63844;50.042;19.224;2023-03-14T03:49:57;97264.08;;;8.53;59.39
75247;BME280;63844;50.042;19.224;2023-03-14T03:52:24;97259.55;;;8.71;58.19
75247;BME280;63844;50.042;19.224;2023-03-14T03:54:50;97267.09;;;8.88;57.86
75247;BME280;63844;50.042;19.224;2023-03-14T03:57:16;97284.35;;;9.00;57.63
75247;BME280;63844;50.042;19.224;2023-03-14T03:59:43;97293.57;;;8.99;58.35
75247;BME280;63844;50.042;19.224;2023-03-14T04:02:09;97288.86;;;8.70;59.77
75247;BME280;63844;50.042;19.224;2023-03-14T04:04:36;97287.46;;;8.51;59.83
75247;BME280;63844;50.042;19.224;2023-03-14T04:07:03;97292.66;;;8.29;60.85
75247;BME280;63844;50.042;19.224;2023-03-14T04:09:31;97295.30;;;8.10;61.40
75247;BME280;63844;50.042;19.224;2023-03-14T04:11:57;97299.39;;;8.05;59.99
75247;BME280;63844;50.042;19.224;2023-03-14T04:14:23;97305.08;;;7.90;62.09
75247;BME280;63844;50.042;19.224;2023-03-14T04:16:50;97309.06;;;7.80;61.69
75247;BME280;63844;50.042;19.224;2023-03-14T04:19:16;97312.48;;;7.66;62.78
75247;BME280;63844;50.042;19.224;2023-03-14T04:21:43;97320.89;;;7.67;61.86
75247;BME280;63844;50.042;19.224;2023-03-14T04:24:13;97320.84;;;7.63;63.08
75247;BME280;63844;50.042;19.224;2023-03-14T04:26:39;97322.01;;;7.55;62.27
75247;BME280;63844;50.042;19.224;2023-03-14T04:29:06;97321.59;;;7.47;62.95
75247;BME280;63844;50.042;19.224;2023-03-14T04:31:32;97317.73;;;7.45;63.53
75247;BME280;63844;50.042;19.224;2023-03-14T04:33:59;97313.98;;;7.43;61.76
75247;BME280;63844;50.042;19.224;2023-03-14T04:36:25;97311.30;;;7.39;62.99
75247;BME280;63844;50.042;19.224;2023-03-14T04:38:51;97308.01;;;7.34;62.66
75247;BME280;63844;50.042;19.224;2023-03-14T04:41:18;97309.38;;;7.28;63.31
75247;BME280;63844;50.042;19.224;2023-03-14T04:43:44;97307.63;;;7.24;62.67
75247;BME280;63844;50.042;19.224;2023-03-14T04:46:11;97305.06;;;7.16;63.92
75247;BME280;63844;50.042;19.224;2023-03-14T04:48:38;97300.58;;;7.06;64.80
75247;BME280;63844;50.042;19.224;2023-03-14T04:51:04;97294.80;;;6.97;64.43
75247;BME280;63844;50.042;19.224;2023-03-14T04:53:31;97283.27;;;6.91;65.62
75247;BME280;63844;50.042;19.224;2023-03-14T04:55:57;97283.55;;;6.83;66.65
75247;BME280;63844;50.042;19.224;2023-03-14T04:58:24;97279.76;;;6.80;65.87
75247;BME280;63844;50.042;19.224;2023-03-14T05:00:51;97281.85;;;6.80;64.90
75247;BME280;63844;50.042;19.224;2023-03-14T05:03:18;97294.22;;;6.79;64.64
75247;BME280;63844;50.042;19.224;2023-03-14T05:05:45;97288.86;;;6.76;67.04
75247;BME280;63844;50.042;19.224;2023-03-14T05:08:12;97294.74;;;6.68;67.63
75247;BME280;63844;50.042;19.224;2023-03-14T05:10:39;97287.20;;;6.68;66.43
75247;BME280;63844;50.042;19.224;2023-03-14T05:13:05;97278.92;;;6.66;66.78
75247;BME280;63844;50.042;19.224;2023-03-14T05:15:32;97279.84;;;6.59;66.82
75247;BME280;63844;50.042;19.224;2023-03-14T05:17:58;97269.91;;;6.62;65.47
75247;BME280;63844;50.042;19.224;2023-03-14T05:20:25;97268.40;;;6.59;66.54
75247;BME280;63844;50.042;19.224;2023-03-14T05:22:52;97264.56;;;6.63;67.07
75247;BME280;63844;50.042;19.224;2023-03-14T05:25:18;97259.58;;;6.66;67.02
75247;BME280;63844;50.042;19.224;2023-03-14T05:27:45;97261.20;;;6.68;66.85
75247;BME280;63844;50.042;19.224;2023-03-14T05:30:11;97247.15;;;6.90;66.04
75247;BME280;63844;50.042;19.224;2023-03-14T05:32:38;97242.80;;;7.05;64.96
75247;BME280;63844;50.042;19.224;2023-03-14T05:35:04;97235.33;;;7.08;65.58
75247;BME280;63844;50.042;19.224;2023-03-14T05:37:31;97230.06;;;7.12;65.08
75247;BME280;63844;50.042;19.224;2023-03-14T05:39:57;97225.20;;;7.23;65.34
75247;BME280;63844;50.042;19.224;2023-03-14T05:42:24;97223.81;;;7.27;65.69
75247;BME280;63844;50.042;19.224;2023-03-14T05:44:50;97220.21;;;7.28;65.33
75247;BME280;63844;50.042;19.224;2023-03-14T05:47:17;97220.15;;;7.33;65.19
75247;BME280;63844;50.042;19.224;2023-03-14T05:49:43;97224.95;;;7.30;66.57
75247;BME280;63844;50.042;19.224;2023-03-14T05:52:10;97219.52;;;7.30;66.13
75247;BME280;63844;50.042;19.224;2023-03-14T05:54:36;97219.66;;;7.32;66.01
75247;BME280;63844;50.042;19.224;2023-03-14T05:57:02;97222.77;;;7.31;66.55
75247;BME280;63844;50.042;19.224;2023-03-14T05:59:29;97220.13;;;7.33;65.86
75247;BME280;63844;50.042;19.224;2023-03-14T06:01:55;97215.71;;;7.37;66.21
75247;BME280;63844;50.042;19.224;2023-03-14T06:04:22;97222.98;;;7.41;65.85
75247;BME280;63844;50.042;19.224;2023-03-14T06:06:48;97215.23;;;7.45;65.65
75247;BME280;63844;50.042;19.224;2023-03-14T06:09:15;97217.71;;;7.56;65.81
75247;BME280;63844;50.042;19.224;2023-03-14T06:11:41;97221.89;;;7.76;64.39
75247;BME280;63844;50.042;19.224;2023-03-14T06:14:08;97222.94;;;8.09;63.27
75247;BME280;63844;50.042;19.224;2023-03-14T06:16:35;97225.10;;;8.32;63.23
75247;BME280;63844;50.042;19.224;2023-03-14T06:19:01;97217.33;;;8.45;62.98
75247;BME280;63844;50.042;19.224;2023-03-14T06:21:27;97213.65;;;8.55;62.66
75247;BME280;63844;50.042;19.224;2023-03-14T06:23:54;97208.24;;;8.68;62.24
75247;BME280;63844;50.042;19.224;2023-03-14T06:26:20;97204.65;;;8.83;61.86
75247;BME280;63844;50.042;19.224;2023-03-14T06:28:48;97202.14;;;8.94;62.48
75247;BME280;63844;50.042;19.224;2023-03-14T06:31:14;97201.76;;;8.86;64.10
75247;BME280;63844;50.042;19.224;2023-03-14T06:33:40;97196.92;;;8.72;65.98
75247;BME280;63844;50.042;19.224;2023-03-14T06:36:07;97196.71;;;8.69;65.47
75247;BME280;63844;50.042;19.224;2023-03-14T06:38:34;97190.66;;;8.72;64.74
75247;BME280;63844;50.042;19.224;2023-03-14T06:41:07;97188.18;;;8.72;64.67
75247;BME280;63844;50.042;19.224;2023-03-14T06:43:34;97182.27;;;8.74;64.70
75247;BME280;63844;50.042;19.224;2023-03-14T06:46:00;97189.59;;;8.80;64.18
75247;BME280;63844;50.042;19.224;2023-03-14T06:48:27;97178.59;;;8.87;64.15
75247;BME280;63844;50.042;19.224;2023-03-14T06:50:53;97177.70;;;8.93;64.29
75247;BME280;63844;50.042;19.224;2023-03-14T06:53:20;97179.59;;;8.97;64.56
75247;BME280;63844;50.042;19.224;2023-03-14T06:55:46;97181.63;;;9.00;64.93
75247;BME280;63844;50.042;19.224;2023-03-14T06:58:13;97182.24;;;9.01;64.33
75247;BME280;63844;50.042;19.224;2023-03-14T07:00:40;97181.17;;;9.07;64.54
75247;BME280;63844;50.042;19.224;2023-03-14T07:03:06;97175.23;;;9.12;65.05
75247;BME280;63844;50.042;19.224;2023-03-14T07:05:33;97172.95;;;9.16;64.70
75247;BME280;63844;50.042;19.224;2023-03-14T07:08:00;97175.25;;;9.22;64.71
75247;BME280;63844;50.042;19.224;2023-03-14T07:10:26;97172.41;;;9.28;64.44
75247;BME280;63844;50.042;19.224;2023-03-14T07:12:53;97173.30;;;9.34;64.66
75247;BME280;63844;50.042;19.224;2023-03-14T07:15:20;97162.23;;;9.43;63.79
75247;BME280;63844;50.042;19.224;2023-03-14T07:17:47;97159.04;;;9.59;63.11
75247;BME280;63844;50.042;19.224;2023-03-14T07:20:14;97153.59;;;9.72;63.73
75247;BME280;63844;50.042;19.224;2023-03-14T07:22:41;97149.34;;;9.86;62.98
75247;BME280;63844;50.042;19.224;2023-03-14T07:25:08;97135.70;;;10.03;62.36
75247;BME280;63844;50.042;19.224;2023-03-14T07:27:36;97128.53;;;10.21;62.14
75247;BME280;63844;50.042;19.224;2023-03-14T07:30:02;97141.73;;;10.39;61.66
75247;BME280;63844;50.042;19.224;2023-03-14T07:32:29;97158.85;;;10.60;59.27
75247;BME280;63844;50.042;19.224;2023-03-14T07:34:55;97164.45;;;10.81;59.17
75247;BME280;63844;50.042;19.224;2023-03-14T07:37:22;97171.86;;;10.97;58.48
75247;BME280;63844;50.042;19.224;2023-03-14T07:39:48;97182.15;;;11.12;58.66
75247;BME280;63844;50.042;19.224;2023-03-14T07:42:15;97187.32;;;11.26;57.48
75247;BME280;63844;50.042;19.224;2023-03-14T07:44:41;97187.08;;;11.39;57.68
75247;BME280;63844;50.042;19.224;2023-03-14T07:47:08;97188.23;;;11.51;57.88
75247;BME280;63844;50.042;19.224;2023-03-14T07:49:34;97190.34;;;11.63;56.97
75247;BME280;63844;50.042;19.224;2023-03-14T07:52:01;97196.70;;;11.73;55.47
75247;BME280;63844;50.042;19.224;2023-03-14T07:54:28;97198.79;;;11.84;55.70
75247;BME280;63844;50.042;19.224;2023-03-14T07:56:54;97197.66;;;11.92;55.26
75247;BME280;63844;50.042;19.224;2023-03-14T07:59:21;97187.40;;;12.01;55.50
75247;BME280;63844;50.042;19.224;2023-03-14T08:01:47;97182.98;;;12.11;54.73
75247;BME280;63844;50.042;19.224;2023-03-14T08:04:13;97184.95;;;12.26;54.78
75247;BME280;63844;50.042;19.224;2023-03-14T08:06:40;97189.24;;;12.38;54.08
75247;BME280;63844;50.042;19.224;2023-03-14T08:09:06;97194.98;;;12.48;54.41
75247;BME280;63844;50.042;19.224;2023-03-14T08:11:33;97193.10;;;12.56;53.26
75247;BME280;63844;50.042;19.224;2023-03-14T08:13:59;97185.08;;;12.66;52.99
75247;BME280;63844;50.042;19.224;2023-03-14T08:16:26;97185.70;;;12.72;51.29
75247;BME280;63844;50.042;19.224;2023-03-14T08:18:52;97183.11;;;12.80;51.27
75247;BME280;63844;50.042;19.224;2023-03-14T08:21:19;97189.10;;;12.89;51.75
75247;BME280;63844;50.042;19.224;2023-03-14T08:23:45;97176.27;;;12.98;50.75
75247;BME280;63844;50.042;19.224;2023-03-14T08:26:11;97174.19;;;12.99;49.97
75247;BME280;63844;50.042;19.224;2023-03-14T08:28:38;97175.10;;;13.04;49.96
75247;BME280;63844;50.042;19.224;2023-03-14T08:31:04;97173.04;;;13.05;49.89
75247;BME280;63844;50.042;19.224;2023-03-14T08:33:31;97170.67;;;13.04;50.18
75247;BME280;63844;50.042;19.224;2023-03-14T08:36:00;97170.25;;;13.06;50.07
75247;BME280;63844;50.042;19.224;2023-03-14T08:38:27;97171.69;;;13.06;49.88
75247;BME280;63844;50.042;19.224;2023-03-14T08:40:57;97180.16;;;13.12;50.21
75247;BME280;63844;50.042;19.224;2023-03-14T08:43:25;97185.30;;;13.18;50.24
75247;BME280;63844;50.042;19.224;2023-03-14T08:45:51;97193.29;;;13.22;50.35
75247;BME280;63844;50.042;19.224;2023-03-14T08:48:18;97196.55;;;13.28;50.23
75247;BME280;63844;50.042;19.224;2023-03-14T08:50:45;97203.13;;;13.29;49.99
75247;BME280;63844;50.042;19.224;2023-03-14T08:53:12;97208.76;;;13.29;49.76
75247;BME280;63844;50.042;19.224;2023-03-14T08:55:39;97205.73;;;13.29;50.51
75247;BME280;63844;50.042;19.224;2023-03-14T08:58:05;97199.22;;;13.23;50.35
75247;BME280;63844;50.042;19.224;2023-03-14T09:00:32;97204.30;;;13.20;50.41
75247;BME280;63844;50.042;19.224;2023-03-14T09:02:58;97207.98;;;13.21;50.85
75247;BME280;63844;50.042;19.224;2023-03-14T09:05:24;97210.16;;;13.19;50.79
75247;BME280;63844;50.042;19.224;2023-03-14T09:07:51;97209.69;;;13.18;50.68
75247;BME280;63844;50.042;19.224;2023-03-14T09:10:17;97216.25;;;13.18;51.04
75247;BME280;63844;50.042;19.224;2023-03-14T09:12:44;97218.45;;;13.17;50.81
75247;BME280;63844;50.042;19.224;2023-03-14T09:15:10;97214.02;;;13.06;50.79
75247;BME280;63844;50.042;19.224;2023-03-14T09:17:37;97218.14;;;13.07;50.91
75247;BME280;63844;50.042;19.224;2023-03-14T09:20:04;97229.06;;;13.15;50.99
75247;BME280;63844;50.042;19.224;2023-03-14T09:22:33;97225.27;;;13.12;50.84
75247;BME280;63844;50.042;19.224;2023-03-14T09:25:05;97233.99;;;13.17;50.94
75247;BME280;63844;50.042;19.224;2023-03-14T09:27:32;97234.11;;;13.19;50.99
75247;BME280;63844;50.042;19.224;2023-03-14T09:29:58;97222.67;;;13.18;50.67
75247;BME280;63844;50.042;19.224;2023-03-14T09:32:25;97233.34;;;13.23;50.98
75247;BME280;63844;50.042;19.224;2023-03-14T09:34:52;97230.53;;;13.26;50.85
75247;BME280;63844;50.042;19.224;2023-03-14T09:37:18;97225.86;;;13.25;50.80
75247;BME280;63844;50.042;19.224;2023-03-14T09:39:46;97228.98;;;13.41;51.04
75247;BME280;63844;50.042;19.224;2023-03-14T09:42:13;97234.14;;;13.56;50.68
75247;BME280;63844;50.042;19.224;2023-03-14T09:44:57;97228.52;;;13.69;50.78
75247;BME280;63844;50.042;19.224;2023-03-14T09:47:26;97227.80;;;13.68;50.36
75247;BME280;63844;50.042;19.224;2023-03-14T09:49:53;97245.08;;;13.75;50.32
75247;BME280;63844;50.042;19.224;2023-03-14T09:52:28;97251.02;;;13.71;50.19
75247;BME280;63844;50.042;19.224;2023-03-14T09:54:59;97246.82;;;13.82;50.16
75247;BME280;63844;50.042;19.224;2023-03-14T09:57:26;97251.77;;;13.90;50.09
75247;BME280;63844;50.042;19.224;2023-03-14T09:59:56;97244.74;;;14.00;49.78
75247;BME280;63844;50.042;19.224;2023-03-14T10:02:33;97235.83;;;14.00;49.96
75247;BME280;63844;50.042;19.224;2023-03-14T10:05:00;97256.45;;;14.05;49.73
75247;BME280;63844;50.042;19.224;2023-03-14T10:07:29;97264.27;;;14.00;49.47
75247;BME280;63844;50.042;19.224;2023-03-14T10:09:57;97257.09;;;14.12;49.94
75247;BME280;63844;50.042;19.224;2023-03-14T10:12:33;97259.95;;;14.14;50.07
75247;BME280;63844;50.042;19.224;2023-03-14T10:15:05;97265.91;;;14.26;49.98
75247;BME280;63844;50.042;19.224;2023-03-14T10:17:39;97269.15;;;14.26;49.79
75247;BME280;63844;50.042;19.224;2023-03-14T10:20:06;97277.02;;;14.30;49.73
75247;BME280;63844;50.042;19.224;2023-03-14T10:22:37;97273.55;;;14.34;50.28
75247;BME280;63844;50.042;19.224;2023-03-14T10:25:06;97273.11;;;14.25;49.98
75247;BME280;63844;50.042;19.224;2023-03-14T10:27:49;97275.31;;;14.23;50.06
75247;BME280;63844;50.042;19.224;2023-03-14T10:32:54;97265.73;;;14.06;50.45
75247;BME280;63844;50.042;19.224;2023-03-14T10:35:23;97259.89;;;14.01;50.63
75247;BME280;63844;50.042;19.224;2023-03-14T10:40:20;97260.19;;;13.97;50.81
75247;BME280;63844;50.042;19.224;2023-03-14T10:42:50;97250.00;;;13.87;51.12
75247;BME280;63844;50.042;19.224;2023-03-14T10:45:36;97239.02;;;13.74;51.39
75247;BME280;63844;50.042;19.224;2023-03-14T10:48:33;97241.80;;;13.67;51.50
75247;BME280;63844;50.042;19.224;2023-03-14T10:51:06;97239.86;;;13.61;51.99
75247;BME280;63844;50.042;19.224;2023-03-14T10:53:58;97242.51;;;13.51;52.15
75247;BME280;63844;50.042;19.224;2023-03-14T10:56:26;97245.11;;;13.46;52.37
75247;BME280;63844;50.042;19.224;2023-03-14T10:58:56;97236.31;;;13.41;52.83
75247;BME280;63844;50.042;19.224;2023-03-14T11:01:50;97234.00;;;13.39;53.11
75247;BME280;63844;50.042;19.224;2023-03-14T11:09:36;97233.36;;;13.23;52.98
75247;BME280;63844;50.042;19.224;2023-03-14T11:18:23;97234.13;;;13.07;53.64
75247;BME280;63844;50.042;19.224;2023-03-14T11:21:02;97238.02;;;13.05;53.89
75247;BME280;63844;50.042;19.224;2023-03-14T11:23:46;97247.27;;;13.03;54.02
75247;BME280;63844;50.042;19.224;2023-03-14T11:26:42;97249.32;;;13.01;53.87
75247;BME280;63844;50.042;19.224;2023-03-14T11:31:58;97248.05;;;13.06;53.81
75247;BME280;63844;50.042;19.224;2023-03-14T11:34:27;97246.77;;;13.09;53.81
75247;BME280;63844;50.042;19.224;2023-03-14T11:39:39;97239.46;;;13.19;53.74
75247;BME280;63844;50.042;19.224;2023-03-14T11:42:12;97236.04;;;13.19;54.06
75247;BME280;63844;50.042;19.224;2023-03-14T11:44:44;97248.46;;;13.18;54.11
75247;BME280;63844;50.042;19.224;2023-03-14T11:47:19;97252.45;;;13.15;53.78
75247;BME280;63844;50.042;19.224;2023-03-14T11:49:54;97254.10;;;13.13;54.03
75247;BME280;63844;50.042;19.224;2023-03-14T11:52:35;97253.72;;;13.15;54.19
75247;BME280;63844;50.042;19.224;2023-03-14T11:55:16;97258.38;;;13.14;54.16
75247;BME280;63844;50.042;19.224;2023-03-14T11:57:45;97257.08;;;13.17;54.19
75247;BME280;63844;50.042;19.224;2023-03-14T12:00:19;97252.97;;;13.13;54.48
75247;BME280;63844;50.042;19.224;2023-03-14T12:06:20;97249.77;;;13.09;54.89
75247;BME280;63844;50.042;19.224;2023-03-14T12:08:50;97244.81;;;13.07;54.71
75247;BME280;63844;50.042;19.224;2023-03-14T12:11:27;97239.02;;;13.04;54.98
75247;BME280;63844;50.042;19.224;2023-03-14T12:13:54;97233.20;;;13.02;54.62
75247;BME280;63844;50.042;19.224;2023-03-14T12:18:51;97229.38;;;13.03;54.81
75247;BME280;63844;50.042;19.224;2023-03-14T12:21:18;97230.31;;;13.03;55.08
75247;BME280;63844;50.042;19.224;2023-03-14T12:23:50;97222.40;;;12.97;55.36
75247;BME280;63844;50.042;19.224;2023-03-14T12:26:26;97222.44;;;12.97;55.13
75247;BME280;63844;50.042;19.224;2023-03-14T12:31:37;97222.00;;;12.92;55.33
75247;BME280;63844;50.042;19.224;2023-03-14T12:34:25;97217.09;;;12.87;55.42
75247;BME280;63844;50.042;19.224;2023-03-14T12:37:12;97221.43;;;12.86;55.21
75247;BME280;63844;50.042;19.224;2023-03-14T12:39:53;97219.46;;;12.82;55.21
75247;BME280;63844;50.042;19.224;2023-03-14T12:47:50;97218.94;;;12.70;55.82
75247;BME280;63844;50.042;19.224;2023-03-14T12:50:41;97219.45;;;12.67;56.10
75247;BME280;63844;50.042;19.224;2023-03-14T12:55:46;97215.73;;;12.58;56.33
75247;BME280;63844;50.042;19.224;2023-03-14T12:58:32;97214.20;;;12.63;56.34
75247;BME280;63844;50.042;19.224;2023-03-14T13:01:04;97216.75;;;12.55;56.92
75247;BME280;63844;50.042;19.224;2023-03-14T13:03:43;97220.54;;;12.53;56.97
75247;BME280;63844;50.042;19.224;2023-03-14T13:06:11;97230.52;;;12.47;57.44
75247;BME280;63844;50.042;19.224;2023-03-14T13:08:45;97232.19;;;12.48;57.52
75247;BME280;63844;50.042;19.224;2023-03-14T13:11:19;97228.73;;;12.42;57.91
75247;BME280;63844;50.042;19.224;2023-03-14T13:13:49;97228.02;;;12.37;58.34
75247;BME280;63844;50.042;19.224;2023-03-14T13:16:19;97227.90;;;12.37;58.68
75247;BME280;63844;50.042;19.224;2023-03-14T13:19:15;97236.30;;;12.30;59.09
75247;BME280;63844;50.042;19.224;2023-03-14T13:21:44;97240.39;;;12.23;60.33
75247;BME280;63844;50.042;19.224;2023-03-14T13:24:25;97255.30;;;12.18;60.54
75247;BME280;63844;50.042;19.224;2023-03-14T13:26:53;97257.69;;;12.10;61.86
75247;BME280;63844;50.042;19.224;2023-03-14T13:29:22;97257.91;;;12.01;62.59
75247;BME280;63844;50.042;19.224;2023-03-14T13:31:51;97257.08;;;11.93;62.96
75247;BME280;63844;50.042;19.224;2023-03-14T13:34:18;97254.95;;;11.89;62.96
75247;BME280;63844;50.042;19.224;2023-03-14T13:36:45;97256.19;;;11.88;63.39
75247;BME280;63844;50.042;19.224;2023-03-14T13:39:19;97260.73;;;11.79;63.80
75247;BME280;63844;50.042;19.224;2023-03-14T13:41:48;97264.36;;;11.76;64.30
75247;BME280;63844;50.042;19.224;2023-03-14T13:44:25;97264.80;;;11.76;64.27
75247;BME280;63844;50.042;19.224;2023-03-14T13:46:51;97269.77;;;11.65;65.15
75247;BME280;63844;50.042;19.224;2023-03-14T13:49:22;97269.34;;;11.60;65.28
75247;BME280;63844;50.042;19.224;2023-03-14T13:51:50;97277.33;;;11.64;65.24